Time;durP1;ratioP1;P1;durP2;ratioP2;P2;SDS_P1;SDS_P2;PMS_P1;PMS_P2;Temp;Humidity;BMP_temperature;BMP_pressure;BME280_temperature;BME280_humidity;BME280_pressure;Samples;Min_cycle;Max_cycle;Signal;HPM_P1;HPM_P2
2021/11/27 00:00:53;;;;;;;0.00;0.00;;;;;20.30;99527.00;;;;5089203;28;20119;-82
2021/11/27 00:03:24;;;;;;;2.50;0.60;;;;;20.40;99531.00;;;;5089605;28;20765;-84
2021/11/27 00:05:54;;;;;;;0.30;0.30;;;;;20.40;99548.00;;;;5089351;28;20048;-82
2021/11/27 00:08:24;;;;;;;0.20;0.20;;;;;20.40;99538.00;;;;5089454;28;20127;-83
2021/11/27 00:10:55;;;;;;;1.33;1.05;;;;;20.40;99551.00;;;;5089564;28;20052;-81
2021/11/27 00:13:27;;;;;;;5.22;0.75;;;;;20.30;99553.00;;;;5089666;28;20050;-79
2021/11/27 00:15:58;;;;;;;0.80;0.55;;;;;20.30;99542.00;;;;5089576;28;20087;-80
2021/11/27 00:18:28;;;;;;;;;;;;;20.20;99567.00;;;;5090187;28;20390;-79
2021/11/27 00:21:06;;;;;;;0.10;0.10;;;;;20.20;99579.00;;;;5089178;28;19916;-79
2021/11/27 00:23:39;;;;;;;0.55;0.22;;;;;20.20;99561.00;;;;5089441;28;20058;-79
2021/11/27 00:26:11;;;;;;;0.00;0.00;;;;;20.20;99575.00;;;;5089073;28;20036;-79
2021/11/27 00:28:42;;;;;;;0.20;0.10;;;;;20.20;99584.00;;;;5088806;28;20111;-78
2021/11/27 00:31:17;;;;;;;0.00;0.00;;;;;20.20;99582.00;;;;5079264;28;20451;-80
2021/11/27 00:33:47;;;;;;;0.00;0.00;;;;;20.20;99576.00;;;;5067276;28;20399;-78
2021/11/27 00:36:17;;;;;;;0.00;0.00;;;;;20.20;99581.00;;;;5068851;28;20054;-79
2021/11/27 00:38:47;;;;;;;0.28;0.22;;;;;20.20;99593.00;;;;5068609;28;20478;-79
2021/11/27 00:41:17;;;;;;;0.63;0.63;;;;;20.20;99584.00;;;;5068442;28;20144;-79
2021/11/27 00:43:46;;;;;;;0.10;0.10;;;;;20.20;99600.00;;;;5072967;28;20049;-78
2021/11/27 00:46:17;;;;;;;0.83;0.83;;;;;20.20;99581.00;;;;5050597;28;20495;-78
2021/11/27 00:48:46;;;;;;;1.25;0.75;;;;;20.20;99584.00;;;;5068462;28;21087;-78
2021/11/27 00:51:19;;;;;;;0.00;0.00;;;;;20.10;99582.00;;;;5074499;28;20052;-78
2021/11/27 00:53:49;;;;;;;0.30;0.20;;;;;20.00;99585.00;;;;5056964;28;20059;-78
2021/11/27 00:56:19;;;;;;;0.00;0.00;;;;;20.00;99599.00;;;;5067727;28;20148;-78
2021/11/27 00:58:49;;;;;;;0.80;0.25;;;;;20.00;99601.00;;;;5068669;28;20058;-78
2021/11/27 01:01:23;;;;;;;1.02;0.38;;;;;20.00;99594.00;;;;5068327;28;20043;-79
2021/11/27 01:03:54;;;;;;;0.20;0.17;;;;;20.00;99611.00;;;;5050422;28;20041;-79
2021/11/27 01:06:27;;;;;;;0.00;0.00;;;;;19.90;99598.00;;;;5050527;28;20076;-79
2021/11/27 01:09:02;;;;;;;0.00;0.00;;;;;20.00;99608.00;;;;5050454;28;20560;-80
2021/11/27 01:11:41;;;;;;;0.20;0.20;;;;;20.00;99594.00;;;;5066347;28;20070;-78
2021/11/27 01:14:16;;;;;;;0.00;0.00;;;;;20.00;99602.00;;;;5067146;28;20033;-83
2021/11/27 01:16:52;;;;;;;0.00;0.00;;;;;20.00;99607.00;;;;5049898;28;20047;-77
2021/11/27 01:19:24;;;;;;;1.08;0.25;;;;;19.90;99613.00;;;;5067901;28;20051;-81
2021/11/27 01:22:01;;;;;;;0.00;0.00;;;;;19.90;99612.00;;;;5067939;28;20049;-78
2021/11/27 01:24:31;;;;;;;0.00;0.00;;;;;19.70;99638.00;;;;5049844;28;20043;-79
2021/11/27 01:27:00;;;;;;;6.35;0.65;;;;;19.80;99614.00;;;;5067813;28;20037;-78
2021/11/27 01:29:38;;;;;;;1.75;0.17;;;;;19.80;99623.00;;;;5067811;28;20037;-77
2021/11/27 01:32:11;;;;;;;0.28;0.28;;;;;19.80;99628.00;;;;5049741;28;20386;-79
2021/11/27 01:34:41;;;;;;;0.95;0.25;;;;;20.00;99623.00;;;;5049671;28;20094;-78
2021/11/27 01:37:11;;;;;;;0.00;0.00;;;;;20.00;99611.00;;;;5067599;28;20492;-80
2021/11/27 01:39:41;;;;;;;1.20;0.65;;;;;19.90;99618.00;;;;5049184;28;20045;-77
2021/11/27 01:42:12;;;;;;;0.00;0.00;;;;;19.90;99611.00;;;;5049740;28;20048;-77
2021/11/27 01:44:45;;;;;;;0.00;0.00;;;;;19.90;99606.00;;;;5049416;28;20058;-77
2021/11/27 01:47:15;;;;;;;0.20;0.20;;;;;19.90;99610.00;;;;5067453;28;20046;-77
2021/11/27 01:49:45;;;;;;;1.02;0.80;;;;;19.90;99624.00;;;;5049879;28;20185;-78
2021/11/27 01:52:14;;;;;;;0.00;0.00;;;;;19.90;99616.00;;;;5067354;28;20051;-77
2021/11/27 01:54:44;;;;;;;0.00;0.00;;;;;19.90;99611.00;;;;5049736;28;20039;-77
2021/11/27 01:57:13;;;;;;;0.00;0.00;;;;;20.00;99618.00;;;;5067424;28;20039;-79
2021/11/27 01:59:44;;;;;;;0.08;0.08;;;;;20.00;99617.00;;;;5048930;28;20082;-78
2021/11/27 02:02:15;;;;;;;0.00;0.00;;;;;20.00;99618.00;;;;5049251;28;20102;-78
2021/11/27 02:04:46;;;;;;;0.00;0.00;;;;;20.00;99614.00;;;;5049003;28;20076;-77
2021/11/27 02:07:16;;;;;;;0.00;0.00;;;;;20.00;99613.00;;;;5049216;28;20044;-77
2021/11/27 02:09:45;;;;;;;0.00;0.00;;;;;20.10;99618.00;;;;5049057;28;20138;-77
2021/11/27 02:12:15;;;;;;;1.25;0.32;;;;;20.00;99627.00;;;;5067382;28;20052;-77
2021/11/27 02:14:45;;;;;;;0.00;0.00;;;;;20.00;99601.00;;;;5049592;28;20135;-77
2021/11/27 02:17:22;;;;;;;0.38;0.20;;;;;20.00;99623.00;;;;5048965;28;20111;-77
2021/11/27 02:19:54;;;;;;;0.00;0.00;;;;;20.00;99607.00;;;;5049145;28;20133;-77
2021/11/27 02:22:26;;;;;;;0.00;0.00;;;;;20.00;99615.00;;;;5048573;28;20048;-77
2021/11/27 02:24:57;;;;;;;0.00;0.00;;;;;20.00;99617.00;;;;5048452;28;20040;-77
2021/11/27 02:27:27;;;;;;;0.35;0.10;;;;;20.00;99605.00;;;;5048789;28;20366;-77
2021/11/27 02:29:57;;;;;;;0.00;0.00;;;;;20.00;99607.00;;;;5049233;28;20053;-77
2021/11/27 02:32:27;;;;;;;0.00;0.00;;;;;19.90;99616.00;;;;5049294;28;20487;-77
2021/11/27 02:34:57;;;;;;;0.00;0.00;;;;;19.90;99615.00;;;;5048718;28;20143;-77
2021/11/27 02:37:27;;;;;;;1.20;0.40;;;;;19.90;99611.00;;;;5049092;28;20048;-77
2021/11/27 02:39:56;;;;;;;0.00;0.00;;;;;19.90;99600.00;;;;5067006;28;20043;-77
2021/11/27 02:42:26;;;;;;;0.30;0.30;;;;;19.90;99607.00;;;;5049605;28;20066;-77
2021/11/27 02:44:55;;;;;;;0.85;0.57;;;;;19.90;99603.00;;;;5066979;28;20480;-77
2021/11/27 02:47:25;;;;;;;0.08;0.08;;;;;19.90;99610.00;;;;5066769;28;20102;-80
2021/11/27 02:49:54;;;;;;;0.00;0.00;;;;;19.80;99615.00;;;;5067254;28;20090;-77
2021/11/27 02:52:25;;;;;;;2.30;0.60;;;;;19.90;99611.00;;;;5049146;28;20426;-77
2021/11/27 02:54:57;;;;;;;0.00;0.00;;;;;19.80;99584.00;;;;5049094;28;20072;-77
2021/11/27 02:57:31;;;;;;;0.00;0.00;;;;;19.80;99604.00;;;;5049228;28;20045;-77
2021/11/27 03:00:05;;;;;;;0.20;0.20;;;;;19.80;99597.00;;;;5049289;28;20036;-77
2021/11/27 03:02:35;;;;;;;0.00;0.00;;;;;19.90;99609.00;;;;5048655;28;20056;-77
2021/11/27 03:05:05;;;;;;;0.00;0.00;;;;;19.90;99588.00;;;;5048805;28;20582;-77
2021/11/27 03:07:35;;;;;;;0.00;0.00;;;;;19.90;99579.00;;;;5048891;28;20049;-77
2021/11/27 03:10:08;;;;;;;0.00;0.00;;;;;19.90;99580.00;;;;5048307;28;20072;-77
2021/11/27 03:12:38;;;;;;;0.00;0.00;;;;;19.90;99589.00;;;;5066430;28;20459;-77
2021/11/27 03:15:11;;;;;;;0.00;0.00;;;;;19.80;99578.00;;;;5048520;28;20090;-76
2021/11/27 03:17:42;;;;;;;0.00;0.00;;;;;19.90;99575.00;;;;5048745;28;20683;-77
2021/11/27 03:20:13;;;;;;;;;;;;;19.90;99572.00;;;;5050131;28;20055;-77
2021/11/27 03:22:43;;;;;;;0.00;0.00;;;;;19.90;99573.00;;;;5070685;28;19920;-77
2021/11/27 03:25:14;;;;;;;0.00;0.00;;;;;19.90;99590.00;;;;5052318;28;20546;-77
2021/11/27 03:27:47;;;;;;;0.00;0.00;;;;;19.90;99581.00;;;;5052517;28;20403;-77
2021/11/27 03:30:19;;;;;;;0.00;0.00;;;;;19.80;99595.00;;;;5052617;28;20044;-77
2021/11/27 03:32:54;;;;;;;0.95;0.65;;;;;19.90;99575.00;;;;5051901;28;20053;-77
2021/11/27 03:35:24;;;;;;;0.00;0.00;;;;;19.90;99570.00;;;;5051762;28;20051;-77
2021/11/27 03:37:55;;;;;;;0.00;0.00;;;;;19.90;99583.00;;;;5051788;28;20049;-78
2021/11/27 03:40:28;;;;;;;0.10;0.10;;;;;19.90;99575.00;;;;5051769;28;20139;-77
2021/11/27 03:43:00;;;;;;;0.00;0.00;;;;;19.90;99572.00;;;;5052351;28;20060;-78
2021/11/27 03:45:31;;;;;;;0.00;0.00;;;;;19.90;99586.00;;;;5051867;28;20056;-76
2021/11/27 03:48:09;;;;;;;0.10;0.10;;;;;19.80;99583.00;;;;5051936;28;20044;-77
2021/11/27 03:51:10;;;;;;;0.00;0.00;;;;;19.80;99585.00;;;;5051462;28;20059;-77
2021/11/27 03:53:42;;;;;;;0.08;0.08;;;;;19.80;99560.00;;;;5052094;28;20094;-77
2021/11/27 03:56:17;;;;;;;0.00;0.00;;;;;19.90;99570.00;;;;5051668;28;20479;-78
2021/11/27 03:58:50;;;;;;;0.00;0.00;;;;;19.90;99573.00;;;;5051876;28;20051;-77
2021/11/27 04:01:22;;;;;;;0.00;0.00;;;;;19.80;99549.00;;;;5051976;28;20545;-77
2021/11/27 04:03:56;;;;;;;0.00;0.00;;;;;19.80;99569.00;;;;5051281;28;20052;-77
2021/11/27 04:06:29;;;;;;;0.00;0.00;;;;;19.80;99552.00;;;;5051422;28;20117;-77
2021/11/27 04:09:00;;;;;;;0.10;0.10;;;;;19.90;99567.00;;;;5051366;28;20044;-77
2021/11/27 04:11:35;;;;;;;0.00;0.00;;;;;19.80;99553.00;;;;5051734;28;20044;-78
2021/11/27 04:14:10;;;;;;;0.10;0.10;;;;;19.80;99560.00;;;;5051328;28;20525;-78
2021/11/27 04:16:49;;;;;;;0.00;0.00;;;;;19.70;99562.00;;;;5051058;28;20047;-77
2021/11/27 04:19:20;;;;;;;0.00;0.00;;;;;19.70;99554.00;;;;5050678;28;20071;-77
2021/11/27 04:21:49;;;;;;;0.00;0.00;;;;;19.70;99554.00;;;;5050572;28;20776;-77
2021/11/27 04:24:19;;;;;;;0.00;0.00;;;;;19.80;99551.00;;;;5069333;28;20475;-77
2021/11/27 04:26:48;;;;;;;0.00;0.00;;;;;19.80;99544.00;;;;5050793;28;20109;-77
2021/11/27 04:29:22;;;;;;;0.00;0.00;;;;;19.70;99542.00;;;;5051324;28;20784;-78
2021/11/27 04:31:52;;;;;;;0.08;0.00;;;;;19.70;99535.00;;;;5069272;28;20119;-77
2021/11/27 04:34:23;;;;;;;0.00;0.00;;;;;19.70;99549.00;;;;5050524;28;20126;-77
2021/11/27 04:36:53;;;;;;;0.00;0.00;;;;;19.70;99529.00;;;;5069237;28;20072;-77
2021/11/27 04:39:23;;;;;;;0.00;0.00;;;;;19.70;99551.00;;;;5051020;28;20040;-77
2021/11/27 04:41:53;;;;;;;0.00;0.00;;;;;19.70;99528.00;;;;5050252;28;20045;-77
2021/11/27 04:44:22;;;;;;;0.00;0.00;;;;;19.70;99544.00;;;;5050207;28;20521;-77
2021/11/27 04:46:52;;;;;;;0.00;0.00;;;;;19.60;99532.00;;;;5050450;28;20605;-77
2021/11/27 04:49:22;;;;;;;0.00;0.00;;;;;19.60;99528.00;;;;5050421;28;20487;-77
2021/11/27 04:51:53;;;;;;;0.00;0.00;;;;;19.60;99539.00;;;;5050840;28;20044;-77
2021/11/27 04:54:23;;;;;;;0.00;0.00;;;;;19.50;99543.00;;;;5050613;28;20044;-77
2021/11/27 04:56:53;;;;;;;0.00;0.00;;;;;19.50;99534.00;;;;5050920;28;20043;-78
2021/11/27 04:59:22;;;;;;;1.30;0.63;;;;;19.40;99541.00;;;;5051328;28;20044;-77
2021/11/27 05:01:52;;;;;;;0.00;0.00;;;;;19.40;99527.00;;;;5050096;28;20509;-77
2021/11/27 05:04:22;;;;;;;0.00;0.00;;;;;19.40;99531.00;;;;5050266;28;20411;-77
2021/11/27 05:06:51;;;;;;;0.00;0.00;;;;;19.40;99521.00;;;;5050401;28;20076;-79
2021/11/27 05:09:21;;;;;;;0.05;0.05;;;;;19.40;99522.00;;;;5050467;28;20451;-78
2021/11/27 05:11:50;;;;;;;0.00;0.00;;;;;19.30;99517.00;;;;5049481;28;20048;-78
2021/11/27 05:14:20;;;;;;;0.00;0.00;;;;;19.30;99527.00;;;;5050187;28;20094;-79
2021/11/27 05:16:50;;;;;;;0.00;0.00;;;;;19.30;99540.00;;;;5049562;28;20040;-80
2021/11/27 05:19:20;;;;;;;0.00;0.00;;;;;19.20;99532.00;;;;5050131;28;20086;-80
2021/11/27 05:21:58;;;;;;;0.00;0.00;;;;;19.30;99521.00;;;;5050131;28;20459;-77
2021/11/27 05:24:28;;;;;;;0.15;0.15;;;;;19.30;99508.00;;;;5049522;28;20059;-78
2021/11/27 05:26:58;;;;;;;0.00;0.00;;;;;19.30;99510.00;;;;5067821;28;20091;-79
2021/11/27 05:30:08;;;;;;;0.20;0.20;;;;;19.30;99503.00;;;;4985419;28;20101;-80
2021/11/27 05:35:34;;;;;;;0.13;0.10;;;;;19.30;99527.00;;;;5049840;28;20074;-77
2021/11/27 05:38:05;;;;;;;0.00;0.00;;;;;19.30;99524.00;;;;5067476;28;20560;-77
2021/11/27 05:40:34;;;;;;;0.00;0.00;;;;;19.30;99517.00;;;;5067536;28;20552;-80
2021/11/27 05:43:04;;;;;;;0.10;0.10;;;;;19.30;99502.00;;;;5049293;28;20045;-81
2021/11/27 05:45:35;;;;;;;0.00;0.00;;;;;19.30;99509.00;;;;5049372;28;20056;-78
2021/11/27 05:48:05;;;;;;;0.00;0.00;;;;;19.30;99503.00;;;;5049502;28;20050;-81
2021/11/27 05:50:53;;;;;;;0.00;0.00;;;;;19.30;99501.00;;;;5067270;28;20055;-80
2021/11/27 05:53:23;;;;;;;0.00;0.00;;;;;19.30;99508.00;;;;5067160;28;20047;-79
2021/11/27 05:55:53;;;;;;;0.00;0.00;;;;;19.30;99502.00;;;;5066644;28;20048;-79
2021/11/27 05:58:23;;;;;;;2.17;0.25;;;;;19.30;99500.00;;;;5067295;28;20115;-82
2021/11/27 06:00:52;;;;;;;0.03;0.03;;;;;19.30;99509.00;;;;5066853;28;20082;-79
2021/11/27 06:03:22;;;;;;;0.85;0.65;;;;;19.30;99498.00;;;;5067295;28;20032;-81
2021/11/27 06:05:51;;;;;;;0.10;0.10;;;;;19.30;99509.00;;;;5067279;28;20425;-81
2021/11/27 06:08:21;;;;;;;0.00;0.00;;;;;19.40;99506.00;;;;5067040;28;20087;-80
2021/11/27 06:10:50;;;;;;;0.00;0.00;;;;;19.40;99513.00;;;;5066910;28;20041;-80
2021/11/27 06:13:20;;;;;;;0.15;0.15;;;;;19.30;99500.00;;;;5067033;28;20045;-79
2021/11/27 06:15:49;;;;;;;0.08;0.08;;;;;19.40;99502.00;;;;5066665;28;20044;-80
2021/11/27 06:18:19;;;;;;;0.00;0.00;;;;;19.40;99497.00;;;;5066967;28;20079;-80
2021/11/27 06:20:48;;;;;;;0.10;0.10;;;;;19.40;99508.00;;;;5066915;28;20044;-79
2021/11/27 06:23:18;;;;;;;0.00;0.00;;;;;19.40;99500.00;;;;5066791;28;20156;-80
2021/11/27 06:25:47;;;;;;;0.00;0.00;;;;;19.40;99509.00;;;;5066492;28;20060;-81
2021/11/27 06:28:17;;;;;;;0.00;0.00;;;;;19.40;99500.00;;;;5067234;28;20086;-77
2021/11/27 06:30:46;;;;;;;0.00;0.00;;;;;19.40;99504.00;;;;5067005;28;20078;-79
2021/11/27 06:33:16;;;;;;;0.00;0.00;;;;;19.40;99509.00;;;;5066734;28;20040;-79
2021/11/27 06:35:45;;;;;;;0.00;0.00;;;;;19.40;99513.00;;;;5066456;28;20441;-81
2021/11/27 06:38:15;;;;;;;3.95;0.52;;;;;19.40;99519.00;;;;5066339;28;20040;-82
2021/11/27 06:40:45;;;;;;;0.00;0.00;;;;;19.30;99512.00;;;;5048804;28;20051;-79
2021/11/27 06:43:24;;;;;;;0.00;0.00;;;;;19.30;99512.00;;;;5050732;28;20123;-80
2021/11/27 06:46:01;;;;;;;1.17;0.45;;;;;19.30;99521.00;;;;5048321;28;20059;-79
2021/11/27 06:48:31;;;;;;;0.13;0.05;;;;;19.30;99536.00;;;;5066669;28;20045;-79
2021/11/27 06:51:01;;;;;;;0.10;0.00;;;;;19.30;99529.00;;;;5067419;28;20568;-79
2021/11/27 06:53:30;;;;;;;0.00;0.00;;;;;19.30;99534.00;;;;5067430;28;20035;-78
2021/11/27 06:56:01;;;;;;;1.58;1.05;;;;;19.20;99534.00;;;;5050832;28;20048;-80
2021/11/27 06:58:32;;;;;;;0.00;0.00;;;;;19.20;99538.00;;;;5070920;28;20094;-79
2021/11/27 07:01:16;;;;;;;0.00;0.00;;;;;19.20;99540.00;;;;5052547;28;20045;-79
2021/11/27 07:04:04;;;;;;;0.10;0.10;;;;;19.30;99544.00;;;;5070771;28;20510;-79
2021/11/27 07:06:53;;;;;;;0.00;0.00;;;;;19.20;99562.00;;;;5070238;28;20056;-79
2021/11/27 07:09:42;;;;;;;0.00;0.00;;;;;19.20;99562.00;;;;5070021;28;20048;-79
2021/11/27 07:12:17;;;;;;;0.05;0.05;;;;;19.20;99556.00;;;;5052258;28;20590;-80
2021/11/27 07:14:50;;;;;;;0.00;0.00;;;;;19.20;99553.00;;;;5052088;28;20047;-78
2021/11/27 07:17:19;;;;;;;0.00;0.00;;;;;19.20;99550.00;;;;5070579;28;20429;-78
2021/11/27 07:19:49;;;;;;;0.00;0.00;;;;;19.10;99550.00;;;;5070805;28;20387;-79
2021/11/27 07:22:18;;;;;;;0.00;0.00;;;;;19.10;99572.00;;;;5069551;28;20052;-79
2021/11/27 07:24:47;;;;;;;2.50;1.30;;;;;19.10;99551.00;;;;5069865;28;20060;-79
2021/11/27 07:27:22;;;;;;;0.00;0.00;;;;;19.10;99564.00;;;;5051481;28;20504;-79
2021/11/27 07:29:52;;;;;;;0.00;0.00;;;;;19.20;99571.00;;;;5070707;28;20040;-77
2021/11/27 07:32:22;;;;;;;0.00;0.00;;;;;19.20;99569.00;;;;5069696;28;20041;-79
2021/11/27 07:34:52;;;;;;;0.00;0.00;;;;;19.20;99575.00;;;;5069450;28;20067;-78
2021/11/27 07:37:22;;;;;;;0.00;0.00;;;;;19.20;99563.00;;;;5069372;28;20048;-78
2021/11/27 07:39:52;;;;;;;0.10;0.05;;;;;19.20;99567.00;;;;5051959;28;20090;-79
2021/11/27 07:42:21;;;;;;;0.15;0.15;;;;;19.20;99581.00;;;;5070119;28;20036;-79
2021/11/27 07:45:16;;;;;;;0.00;0.00;;;;;19.20;99578.00;;;;5058394;28;20055;-79
2021/11/27 07:48:08;;;;;;;0.00;0.00;;;;;19.30;99582.00;;;;5069216;28;20580;-78
2021/11/27 07:50:56;;;;;;;0.03;0.03;;;;;19.20;99577.00;;;;5069704;28;20047;-77
2021/11/27 07:53:35;;;;;;;0.00;0.00;;;;;19.20;99575.00;;;;5069719;28;20037;-79
2021/11/27 07:56:05;;;;;;;0.00;0.00;;;;;19.30;99588.00;;;;5069824;28;20123;-78
2021/11/27 07:58:34;;;;;;;0.00;0.00;;;;;19.30;99583.00;;;;5051426;28;20082;-79
2021/11/27 08:01:04;;;;;;;0.00;0.00;;;;;19.30;99587.00;;;;5069611;28;20045;-78
2021/11/27 08:03:34;;;;;;;0.00;0.00;;;;;19.30;99592.00;;;;5069989;28;20037;-79
2021/11/27 08:06:04;;;;;;;0.00;0.00;;;;;19.30;99591.00;;;;5068931;28;20053;-78
2021/11/27 08:08:34;;;;;;;0.45;0.45;;;;;19.30;99596.00;;;;5068932;28;20040;-78
2021/11/27 08:11:04;;;;;;;0.13;0.13;;;;;19.30;99603.00;;;;5069015;28;20102;-80
2021/11/27 08:13:34;;;;;;;0.00;0.00;;;;;19.30;99590.00;;;;5069491;28;20049;-78
2021/11/27 08:16:04;;;;;;;0.00;0.00;;;;;19.30;99584.00;;;;5069021;28;20487;-80
2021/11/27 08:18:33;;;;;;;0.00;0.00;;;;;19.30;99592.00;;;;5069117;28;20548;-80
2021/11/27 08:21:03;;;;;;;0.00;0.00;;;;;19.30;99606.00;;;;5069075;28;20033;-78
2021/11/27 08:23:49;;;;;;;0.22;0.10;;;;;19.40;99619.00;;;;5069333;28;20417;-78
2021/11/27 08:26:19;;;;;;;0.47;0.47;;;;;19.40;99623.00;;;;5069093;28;20044;-79
2021/11/27 08:28:49;;;;;;;0.00;0.00;;;;;19.40;99622.00;;;;5068920;28;20090;-79
2021/11/27 08:31:19;;;;;;;;;;;;;19.30;99628.00;;;;5069460;28;20044;-77
2021/11/27 08:33:49;;;;;;;0.00;0.00;;;;;19.30;99624.00;;;;5082267;28;19927;-78
2021/11/27 08:36:18;;;;;;;0.00;0.00;;;;;19.30;99621.00;;;;5066250;28;20058;-79
2021/11/27 08:38:48;;;;;;;0.00;0.00;;;;;19.30;99635.00;;;;5067739;28;20617;-79
2021/11/27 08:41:17;;;;;;;0.00;0.00;;;;;19.40;99658.00;;;;5051003;28;20036;-79
2021/11/27 08:43:46;;;;;;;2.53;0.17;;;;;19.30;99649.00;;;;5050706;28;20048;-79
2021/11/27 08:46:16;;;;;;;0.20;0.20;;;;;19.30;99645.00;;;;5068624;28;20067;-78
2021/11/27 08:48:46;;;;;;;0.00;0.00;;;;;19.30;99660.00;;;;5068027;28;20106;-78
2021/11/27 08:51:15;;;;;;;0.00;0.00;;;;;19.30;99650.00;;;;5069126;28;20032;-79
2021/11/27 08:53:44;;;;;;;0.00;0.00;;;;;19.40;99662.00;;;;5068489;28;20044;-79
2021/11/27 08:56:14;;;;;;;0.00;0.00;;;;;19.40;99657.00;;;;5068457;28;20041;-79
2021/11/27 08:58:43;;;;;;;0.00;0.00;;;;;19.40;99663.00;;;;5067983;28;20537;-78
2021/11/27 09:01:13;;;;;;;0.00;0.00;;;;;19.40;99671.00;;;;5068080;28;20044;-79
2021/11/27 09:03:44;;;;;;;0.10;0.10;;;;;19.40;99658.00;;;;5068258;28;20040;-79
2021/11/27 09:06:14;;;;;;;0.00;0.00;;;;;19.40;99680.00;;;;5068387;28;20458;-80
2021/11/27 09:08:44;;;;;;;0.00;0.00;;;;;19.50;99667.00;;;;5068370;28;20344;-79
2021/11/27 09:11:18;;;;;;;0.00;0.00;;;;;19.40;99665.00;;;;5068669;28;20044;-80
2021/11/27 09:13:49;;;;;;;0.00;0.00;;;;;19.40;99670.00;;;;5068247;28;20558;-82
2021/11/27 09:16:18;;;;;;;0.00;0.00;;;;;19.40;99667.00;;;;5068409;28;20045;-81
2021/11/27 09:19:05;;;;;;;0.00;0.00;;;;;19.40;99671.00;;;;5048567;28;20094;-79
2021/11/27 09:21:36;;;;;;;0.00;0.00;;;;;19.40;99670.00;;;;5067906;28;20059;-80
2021/11/27 09:24:06;;;;;;;0.00;0.00;;;;;19.40;99671.00;;;;5067524;28;20030;-80
2021/11/27 09:26:37;;;;;;;0.00;0.00;;;;;19.40;99679.00;;;;5067976;28;20048;-79
2021/11/27 09:29:08;;;;;;;0.00;0.00;;;;;19.40;99692.00;;;;5068587;28;20106;-79
2021/11/27 09:31:39;;;;;;;0.00;0.00;;;;;19.50;99681.00;;;;5067626;28;20032;-78
2021/11/27 09:34:10;;;;;;;;;;;;;19.40;99711.00;;;;5068142;28;20040;-79
2021/11/27 09:36:40;;;;;;;0.00;0.00;;;;;19.50;99692.00;;;;5049901;28;19932;-79
2021/11/27 09:39:13;;;;;;;0.00;0.00;;;;;19.50;99713.00;;;;5067209;28;20064;-78
2021/11/27 09:41:45;;;;;;;0.00;0.00;;;;;19.50;99718.00;;;;5067861;28;20459;-78
2021/11/27 09:44:18;;;;;;;0.00;0.00;;;;;19.60;99704.00;;;;5067615;28;20043;-78
2021/11/27 09:46:48;;;;;;;0.00;0.00;;;;;19.60;99713.00;;;;5067488;28;20098;-78
2021/11/27 09:49:22;;;;;;;0.00;0.00;;;;;19.80;99717.00;;;;5066885;28;20466;-78
2021/11/27 09:51:53;;;;;;;0.00;0.00;;;;;19.90;99715.00;;;;5066965;28;20449;-78
2021/11/27 09:54:24;;;;;;;0.00;0.00;;;;;20.10;99700.00;;;;5067296;28;20037;-78
2021/11/27 09:56:55;;;;;;;0.03;0.03;;;;;20.20;99702.00;;;;5067194;28;20495;-78
2021/11/27 09:59:25;;;;;;;;;;;;;20.40;99705.00;;;;5067039;28;20041;-78
2021/11/27 10:01:56;;;;;;;0.00;0.00;;;;;20.40;99705.00;;;;5067261;28;19921;-78
2021/11/27 10:04:31;;;;;;;0.00;0.00;;;;;20.40;99721.00;;;;5067972;28;20045;-78
2021/11/27 10:07:01;;;;;;;0.00;0.00;;;;;20.50;99706.00;;;;5066981;28;20068;-78
2021/11/27 10:09:31;;;;;;;0.00;0.00;;;;;20.50;99716.00;;;;5067028;28;20060;-78
2021/11/27 10:12:07;;;;;;;0.00;0.00;;;;;20.50;99720.00;;;;5067121;28;20036;-79
2021/11/27 10:14:39;;;;;;;0.00;0.00;;;;;20.70;99722.00;;;;5067051;28;20109;-79
2021/11/27 10:17:12;;;;;;;0.00;0.00;;;;;20.80;99726.00;;;;5067226;28;20449;-80
2021/11/27 10:19:42;;;;;;;0.00;0.00;;;;;21.00;99724.00;;;;5066815;28;20120;-81
2021/11/27 10:22:14;;;;;;;0.00;0.00;;;;;20.80;99739.00;;;;5067225;28;20368;-80
2021/11/27 10:24:50;;;;;;;3.78;1.48;;;;;20.50;99751.00;;;;5067206;28;20052;-79
2021/11/27 10:27:29;;;;;;;0.00;0.00;;;;;20.40;99754.00;;;;5067103;28;20048;-81
2021/11/27 10:30:03;;;;;;;0.00;0.00;;;;;20.30;99749.00;;;;5065980;28;20115;-81
2021/11/27 10:32:44;;;;;;;0.00;0.00;;;;;20.20;99758.00;;;;5046947;28;20052;-80
2021/11/27 10:35:19;;;;;;;0.00;0.00;;;;;20.40;99736.00;;;;5066941;28;20044;-78
2021/11/27 10:37:53;;;;;;;0.00;0.00;;;;;20.50;99747.00;;;;5048505;28;20048;-78
2021/11/27 10:40:30;;;;;;;0.00;0.00;;;;;20.60;99745.00;;;;5067025;28;20068;-79
2021/11/27 10:43:06;;;;;;;0.10;0.10;;;;;20.70;99733.00;;;;5066595;28;20356;-78
2021/11/27 10:45:37;;;;;;;0.00;0.00;;;;;21.40;99712.00;;;;5049325;28;20044;-78
2021/11/27 10:48:12;;;;;;;0.00;0.00;;;;;22.90;99678.00;;;;5066728;28;20048;-79
2021/11/27 10:50:53;;;;;;;0.00;0.00;;;;;24.30;99705.00;;;;5066773;28;20059;-78
2021/11/27 10:53:33;;;;;;;0.10;0.10;;;;;22.70;99733.00;;;;5066207;28;20047;-79
2021/11/27 10:56:11;;;;;;;0.00;0.00;;;;;22.20;99730.00;;;;5066514;28;20041;-78
2021/11/27 10:59:01;;;;;;;0.00;0.00;;;;;21.80;99754.00;;;;5048897;28;20059;-78
2021/11/27 11:01:31;;;;;;;0.20;0.20;;;;;21.70;99759.00;;;;5048125;28;20064;-77
2021/11/27 11:04:17;;;;;;;0.00;0.00;;;;;21.50;99753.00;;;;5066250;28;20041;-77
2021/11/27 11:06:46;;;;;;;0.00;0.00;;;;;21.40;99769.00;;;;5066776;28;20047;-79
2021/11/27 11:09:16;;;;;;;0.13;0.13;;;;;21.30;99766.00;;;;5067031;28;20098;-78
2021/11/27 11:11:46;;;;;;;0.00;0.00;;;;;21.30;99759.00;;;;5048783;28;20087;-78
2021/11/27 11:14:25;;;;;;;0.00;0.00;;;;;21.30;99766.00;;;;5066289;28;20064;-77
2021/11/27 11:17:00;;;;;;;0.50;0.30;;;;;21.20;99776.00;;;;5066195;28;20055;-78
2021/11/27 11:19:31;;;;;;;0.00;0.00;;;;;21.20;99781.00;;;;5066930;28;20049;-78
2021/11/27 11:22:17;;;;;;;0.10;0.10;;;;;21.20;99774.00;;;;5066593;28;20119;-78
2021/11/27 11:24:47;;;;;;;0.05;0.05;;;;;21.00;99776.00;;;;5066165;28;20068;-79
2021/11/27 11:27:30;;;;;;;0.50;0.50;;;;;21.10;99780.00;;;;5066157;28;20114;-79
2021/11/27 11:30:02;;;;;;;0.00;0.00;;;;;21.00;99791.00;;;;5066498;28;20040;-78
2021/11/27 11:32:31;;;;;;;;;;;;;21.20;99791.00;;;;5067415;28;20068;-80
2021/11/27 11:35:02;;;;;;;0.00;0.00;;;;;21.70;99782.00;;;;5047968;28;19917;-80
2021/11/27 11:37:31;;;;;;;0.00;0.00;;;;;22.30;99772.00;;;;5065896;28;20478;-79
2021/11/27 11:40:03;;;;;;;0.00;0.00;;;;;22.60;99764.00;;;;5066113;28;20131;-79
2021/11/27 11:42:33;;;;;;;0.00;0.00;;;;;22.90;99758.00;;;;5069576;28;20045;-78
2021/11/27 11:45:02;;;;;;;0.00;0.00;;;;;23.20;99732.00;;;;5069435;28;20502;-79
2021/11/27 11:59:41;;;;;;;0.08;0.08;;;;;23.60;99759.00;;;;5146266;27;20210;-79
2021/11/27 12:02:16;;;;;;;1.05;0.05;;;;;23.70;99751.00;;;;5124337;27;20039;-79
2021/11/27 12:05:09;;;;;;;0.00;0.00;;;;;23.90;99763.00;;;;5123038;28;20047;-81
2021/11/27 12:07:47;;;;;;;0.43;0.43;;;;;24.10;99744.00;;;;5123452;28;20051;-82
2021/11/27 12:10:44;;;;;;;0.00;0.00;;;;;25.30;99684.00;;;;5124803;28;20040;-80
2021/11/27 12:13:15;;;;;;;;;;;;;26.80;99719.00;;;;5129302;28;20027;-77
2021/11/27 12:15:48;;;;;;;0.00;0.00;;;;;25.50;99769.00;;;;5150348;27;19946;-79
2021/11/27 12:18:19;;;;;;;0.00;0.00;;;;;23.90;99767.00;;;;5147862;28;20051;-78
2021/11/27 12:20:59;;;;;;;;;;;;;23.00;99794.00;;;;5150406;27;20060;-77
2021/11/27 12:23:43;;;;;;;0.00;0.00;;;;;22.60;99793.00;;;;5149148;27;19923;-82
2021/11/27 12:26:14;;;;;;;0.20;0.20;;;;;22.40;99789.00;;;;5131754;28;20051;-81
2021/11/27 12:28:50;;;;;;;0.00;0.00;;;;;22.40;99783.00;;;;5106060;28;20050;-84
2021/11/27 12:42:36;;;;;;;0.00;0.00;;;;;26.50;99698.00;;;;5124075;27;20403;-79
2021/11/27 12:45:08;;;;;;;0.00;0.00;;;;;26.70;99699.00;;;;5124346;27;20040;-78
2021/11/27 12:47:39;;;;;;;0.00;0.00;;;;;26.70;99720.00;;;;5124819;27;20059;-80
2021/11/27 12:50:15;;;;;;;;;;;;;28.00;99653.00;;;;5123081;28;20135;-80
2021/11/27 12:52:45;;;;;;;0.00;0.00;;;;;28.50;99715.00;;;;5124803;27;19976;-79
2021/11/27 12:55:16;;;;;;;0.00;0.00;;;;;28.00;99724.00;;;;5124382;27;20053;-78
2021/11/27 12:57:48;;;;;;;;;;;;;27.20;99725.00;;;;5124475;27;20138;-79
2021/11/27 13:00:22;;;;;;;0.00;0.00;;;;;27.90;99634.00;;;;5123695;27;19963;-80
2021/11/27 13:03:04;;;;;;;0.00;0.00;;;;;28.70;99681.00;;;;5123954;27;20031;-82
2021/11/27 13:05:36;;;;;;;0.08;0.08;;;;;28.90;99707.00;;;;5122839;27;20047;-77
2021/11/27 13:08:11;;;;;;;0.00;0.00;;;;;26.90;99747.00;;;;5123164;28;20045;-78
2021/11/27 13:10:42;;;;;;;0.00;0.00;;;;;26.90;99744.00;;;;5122455;28;20055;-78
2021/11/27 13:13:24;;;;;;;0.00;0.00;;;;;26.60;99741.00;;;;5123544;27;20047;-75